Time;durP1;ratioP1;P1;durP2;ratioP2;P2;SDS_P1;SDS_P2;PMS_P1;PMS_P2;Temp;Humidity;BMP_temperature;BMP_pressure;BME280_temperature;BME280_humidity;BME280_pressure;Samples;Min_cycle;Max_cycle;Signal;HPM_P1;HPM_P2
2022/07/19 00:01:10;;;;;;;;;;;;;;;22.95;55.71;101812.84;5074786;28;19912;-36
2022/07/19 00:03:35;;;;;;;;;;;;;;;22.92;55.56;101821.69;5074709;28;19995;-36
2022/07/19 00:06:01;;;;;;;;;;;;;;;22.88;55.74;101810.38;5074695;28;19913;-36
2022/07/19 00:08:26;;;;;;;;;;;;;;;22.82;55.72;101809.59;5074338;28;20268;-36
2022/07/19 00:10:51;;;;;;;;;;;;;;;22.81;55.84;101807.97;5074267;28;20268;-36
2022/07/19 00:13:16;;;;;;;;;;;;;;;22.78;55.69;101814.03;5074300;28;19919;-36
2022/07/19 00:15:41;;;;;;;;;;;;;;;22.75;55.83;101811.06;5073933;28;19928;-36
2022/07/19 00:18:07;;;;;;;;;;;;;;;22.68;57.42;101808.63;5074001;28;19912;-36
2022/07/19 00:20:32;;;;;;;;;;;;;;;22.63;56.51;101803.97;5074237;28;19920;-36
2022/07/19 00:22:57;;;;;;;;;;;;;;;22.62;56.45;101802.34;5073392;28;19919;-36
2022/07/19 00:25:22;;;;;;;;;;;;;;;22.58;56.16;101801.28;5073581;28;19912;-36
2022/07/19 00:27:47;;;;;;;;;;;;;;;22.55;56.50;101799.09;5074009;28;20369;-36
2022/07/19 00:30:13;;;;;;;;;;;;;;;22.50;56.24;101796.41;5073970;28;19913;-35
2022/07/19 00:32:38;;;;;;;;;;;;;;;22.47;56.45;101798.91;5073966;28;20420;-35
2022/07/19 00:35:03;;;;;;;;;;;;;;;22.42;56.37;101794.25;5073522;28;19960;-36
2022/07/19 00:37:28;;;;;;;;;;;;;;;22.36;56.65;101792.66;5074137;28;20416;-35
2022/07/19 00:39:54;;;;;;;;;;;;;;;22.32;56.59;101788.81;5073358;28;20260;-35
2022/07/19 00:42:19;;;;;;;;;;;;;;;22.28;56.88;101791.31;5073851;28;19913;-35
2022/07/19 00:44:44;;;;;;;;;;;;;;;22.24;56.93;101790.25;5074064;28;20325;-36
2022/07/19 00:47:09;;;;;;;;;;;;;;;22.21;56.90;101790.84;5074106;28;19934;-35
2022/07/19 00:49:35;;;;;;;;;;;;;;;22.19;56.84;101790.28;5073552;28;19950;-36
2022/07/19 00:52:02;;;;;;;;;;;;;;;22.16;57.06;101788.13;5074277;28;19920;-36
2022/07/19 00:54:27;;;;;;;;;;;;;;;22.14;56.87;101793.06;5073124;28;19912;-36
2022/07/19 00:56:53;;;;;;;;;;;;;;;22.12;57.04;101780.72;5073883;28;20321;-36
2022/07/19 00:59:18;;;;;;;;;;;;;;;22.10;56.69;101778.19;5073293;28;19912;-36
2022/07/19 01:01:44;;;;;;;;;;;;;;;22.08;56.92;101783.16;5074185;28;19913;-36
2022/07/19 01:04:10;;;;;;;;;;;;;;;22.05;56.97;101784.56;5074427;28;19912;-36
2022/07/19 01:06:35;;;;;;;;;;;;;;;22.01;57.02;101782.66;5073539;28;20429;-36
2022/07/19 01:09:01;;;;;;;;;;;;;;;21.99;56.97;101790.38;5073259;28;19965;-36
2022/07/19 01:11:26;;;;;;;;;;;;;;;21.96;57.04;101788.19;5073360;28;20053;-36
2022/07/19 01:13:51;;;;;;;;;;;;;;;21.91;57.12;101790.97;5073732;28;19912;-36
2022/07/19 01:16:17;;;;;;;;;;;;;;;21.86;57.35;101789.06;5073484;28;19912;-36
2022/07/19 01:18:42;;;;;;;;;;;;;;;21.83;57.09;101796.00;5073135;28;20345;-36
2022/07/19 01:21:09;;;;;;;;;;;;;;;21.79;57.25;101789.41;5073952;28;19919;-36
2022/07/19 01:23:34;;;;;;;;;;;;;;;21.76;57.19;101787.19;5073466;28;19927;-36
2022/07/19 01:25:59;;;;;;;;;;;;;;;21.73;57.24;101792.47;5073123;28;19912;-36
2022/07/19 01:28:25;;;;;;;;;;;;;;;21.68;57.34;101787.81;5071505;28;19973;-36
2022/07/19 01:30:50;;;;;;;;;;;;;;;21.65;57.34;101793.03;5073298;28;19992;-36
2022/07/19 01:33:16;;;;;;;;;;;;;;;21.63;57.50;101789.78;5073330;28;20353;-36
2022/07/19 01:35:41;;;;;;;;;;;;;;;21.57;57.66;101787.03;5076424;28;19918;-36
2022/07/19 01:38:06;;;;;;;;;;;;;;;21.55;57.69;101791.16;5077081;28;20357;-36
2022/07/19 01:40:33;;;;;;;;;;;;;;;21.52;57.67;101799.97;5077141;28;19912;-36
2022/07/19 01:42:58;;;;;;;;;;;;;;;21.50;57.73;101792.00;5077411;28;20299;-36
2022/07/19 01:45:23;;;;;;;;;;;;;;;21.47;57.68;101794.50;5076834;28;19923;-36
2022/07/19 01:47:49;;;;;;;;;;;;;;;21.45;57.87;101794.78;5076769;28;20269;-36
2022/07/19 01:50:15;;;;;;;;;;;;;;;21.44;57.92;101790.38;5077288;28;19916;-36
2022/07/19 01:52:40;;;;;;;;;;;;;;;21.43;58.16;101785.19;5076777;28;19976;-36
2022/07/19 01:55:06;;;;;;;;;;;;;;;21.39;58.03;101786.84;5077171;28;19948;-36
2022/07/19 01:57:32;;;;;;;;;;;;;;;21.36;58.13;101792.88;5076346;28;19916;-36
2022/07/19 01:59:57;;;;;;;;;;;;;;;21.29;58.22;101785.72;5076780;28;19940;-36
2022/07/19 02:02:22;;;;;;;;;;;;;;;21.24;58.46;101791.25;5076785;28;19912;-36
2022/07/19 02:04:48;;;;;;;;;;;;;;;21.22;58.66;101787.13;5076085;28;20371;-36
2022/07/19 02:07:13;;;;;;;;;;;;;;;21.19;58.71;101794.03;5076203;28;19912;-36
2022/07/19 02:09:38;;;;;;;;;;;;;;;21.15;58.95;101776.44;5076002;28;19912;-36
2022/07/19 02:12:03;;;;;;;;;;;;;;;21.11;58.97;101783.59;5076342;28;19967;-36
2022/07/19 02:14:29;;;;;;;;;;;;;;;21.09;59.00;101785.81;5076185;28;19951;-36
2022/07/19 02:16:54;;;;;;;;;;;;;;;21.04;59.00;101780.31;5076727;28;20291;-37
2022/07/19 02:19:21;;;;;;;;;;;;;;;21.03;59.11;101778.63;5076151;28;20284;-36
2022/07/19 02:21:46;;;;;;;;;;;;;;;21.01;59.09;101778.94;5076148;28;19913;-36
2022/07/19 02:24:11;;;;;;;;;;;;;;;20.98;59.48;101773.97;5076204;28;19913;-36
2022/07/19 02:26:36;;;;;;;;;;;;;;;20.95;59.45;101776.47;5076403;28;20004;-36
2022/07/19 02:29:02;;;;;;;;;;;;;;;20.93;59.50;101764.91;5076033;28;19912;-36
2022/07/19 02:31:27;;;;;;;;;;;;;;;20.88;59.82;101764.94;5076727;28;19919;-36
2022/07/19 02:33:52;;;;;;;;;;;;;;;20.85;59.81;101765.50;5075881;28;20356;-36
2022/07/19 02:36:17;;;;;;;;;;;;;;;20.79;59.91;101767.44;5075781;28;20404;-36
2022/07/19 02:38:43;;;;;;;;;;;;;;;20.75;60.03;101764.41;5076066;28;19916;-36
2022/07/19 02:41:09;;;;;;;;;;;;;;;20.75;60.19;101767.16;5075803;28;20213;-36
2022/07/19 02:43:34;;;;;;;;;;;;;;;20.73;60.10;101766.59;5076042;28;19916;-36
2022/07/19 02:45:59;;;;;;;;;;;;;;;20.70;60.30;101764.44;5074981;28;20372;-36
2022/07/19 02:48:24;;;;;;;;;;;;;;;20.66;60.17;101765.25;5075601;28;20324;-36
2022/07/19 02:50:50;;;;;;;;;;;;;;;20.60;60.25;101758.13;5076070;28;19994;-36
2022/07/19 02:53:15;;;;;;;;;;;;;;;20.55;60.52;101751.53;5076034;28;20006;-36
2022/07/19 02:55:40;;;;;;;;;;;;;;;20.54;60.64;101762.78;5075113;28;19928;-36
2022/07/19 02:58:06;;;;;;;;;;;;;;;20.50;60.60;101758.94;5075956;28;19962;-36
2022/07/19 03:00:31;;;;;;;;;;;;;;;20.47;60.57;101757.56;5075587;28;19912;-36
2022/07/19 03:03:43;;;;;;;;;;;;;;;20.44;60.91;101754.50;5075174;28;19912;-36
2022/07/19 03:05:42;;;;;;;;;;;;;;;20.39;60.76;101752.56;5075046;28;19970;-36
2022/07/19 03:08:07;;;;;;;;;;;;;;;20.38;60.93;101763.84;5075026;28;19916;-36
2022/07/19 03:10:33;;;;;;;;;;;;;;;20.39;60.98;101752.56;5075246;28;19919;-36
2022/07/19 03:12:58;;;;;;;;;;;;;;;20.39;61.04;101752.56;5075678;28;19918;-36
2022/07/19 03:15:23;;;;;;;;;;;;;;;20.37;61.16;101743.81;5075275;28;20011;-36
2022/07/19 03:17:48;;;;;;;;;;;;;;;20.37;61.05;101742.97;5074804;28;19919;-36
2022/07/19 03:20:13;;;;;;;;;;;;;;;20.36;61.06;101741.34;5074992;28;19917;-36
2022/07/19 03:22:39;;;;;;;;;;;;;;;20.31;62.26;101742.97;5075543;28;19912;-36
2022/07/19 03:25:04;;;;;;;;;;;;;;;20.25;62.20;101744.09;5075633;28;20042;-36
2022/07/19 03:27:29;;;;;;;;;;;;;;;20.21;61.43;101742.97;5074933;28;19936;-36
2022/07/19 03:29:54;;;;;;;;;;;;;;;20.22;61.50;101738.31;5074883;28;19965;-35
2022/07/19 03:32:20;;;;;;;;;;;;;;;20.23;61.27;101734.47;5074885;28;19951;-36
2022/07/19 03:34:45;;;;;;;;;;;;;;;20.23;61.25;101739.94;5075198;28;20011;-36
2022/07/19 03:37:10;;;;;;;;;;;;;;;20.20;61.50;101732.25;5074714;28;20027;-36
2022/07/19 03:39:35;;;;;;;;;;;;;;;20.15;61.54;101732.25;5074575;28;19916;-35
2022/07/19 03:42:00;;;;;;;;;;;;;;;20.11;61.49;101737.47;5075331;28;19912;-35
2022/07/19 03:44:26;;;;;;;;;;;;;;;20.11;61.58;101737.47;5074179;28;20275;-35
2022/07/19 03:46:51;;;;;;;;;;;;;;;20.10;61.44;101735.00;5075286;28;19913;-35
2022/07/19 03:49:16;;;;;;;;;;;;;;;20.10;61.96;101733.06;5074724;28;20364;-35
2022/07/19 03:51:41;;;;;;;;;;;;;;;20.08;61.69;101737.19;5074384;28;20246;-35
2022/07/19 03:54:07;;;;;;;;;;;;;;;20.04;61.55;101737.72;5075148;28;19923;-36
2022/07/19 03:56:32;;;;;;;;;;;;;;;20.01;61.82;101738.31;5074815;28;20241;-36
2022/07/19 03:58:57;;;;;;;;;;;;;;;19.99;61.75;101742.41;5074222;28;19919;-36
2022/07/19 04:01:22;;;;;;;;;;;;;;;19.98;61.95;101736.09;5073204;28;19912;-36
2022/07/19 04:03:47;;;;;;;;;;;;;;;19.97;61.76;101748.16;5074408;28;19966;-36
2022/07/19 04:06:13;;;;;;;;;;;;;;;19.93;62.09;101744.31;5074054;28;19916;-36
2022/07/19 04:08:38;;;;;;;;;;;;;;;19.91;61.77;101748.41;5074020;28;19919;-36
2022/07/19 04:11:04;;;;;;;;;;;;;;;19.89;62.04;101751.44;5074376;28;19912;-35
2022/07/19 04:13:31;;;;;;;;;;;;;;;19.88;62.03;101743.47;5073984;28;19912;-36
2022/07/19 04:15:57;;;;;;;;;;;;;;;19.89;62.16;101748.69;5074174;28;20364;-36
2022/07/19 04:18:22;;;;;;;;;;;;;;;19.91;62.51;101748.41;5073686;28;19999;-35
2022/07/19 04:20:47;;;;;;;;;;;;;;;19.91;62.10;101742.94;5073836;28;19916;-36
2022/07/19 04:23:12;;;;;;;;;;;;;;;19.91;62.24;101748.41;5074139;28;20004;-36
2022/07/19 04:25:37;;;;;;;;;;;;;;;19.92;62.19;101741.84;5074013;28;19912;-36
2022/07/19 04:28:03;;;;;;;;;;;;;;;19.96;62.14;101740.19;5074556;28;20365;-36
2022/07/19 04:30:28;;;;;;;;;;;;;;;20.02;62.38;101741.88;5073711;28;19912;-36
2022/07/19 04:32:53;;;;;;;;;;;;;;;20.08;62.13;101745.44;5074134;28;19924;-36
2022/07/19 04:35:19;;;;;;;;;;;;;;;20.08;62.15;101742.69;5073572;28;19920;-36
2022/07/19 04:37:44;;;;;;;;;;;;;;;20.12;62.92;101741.06;5073874;28;20256;-35
2022/07/19 04:40:09;;;;;;;;;;;;;;;20.13;62.22;101740.78;5073575;28;19971;-35
2022/07/19 04:42:34;;;;;;;;;;;;;;;20.17;62.05;101741.88;5073822;28;19983;-35
2022/07/19 04:45:00;;;;;;;;;;;;;;;20.22;61.89;101744.63;5073570;28;19919;-36
2022/07/19 04:47:25;;;;;;;;;;;;;;;20.28;61.79;101743.53;5073286;28;19970;-36
2022/07/19 04:49:50;;;;;;;;;;;;;;;20.33;61.92;101748.19;5073126;28;19963;-36
2022/07/19 04:52:15;;;;;;;;;;;;;;;20.35;62.45;101743.25;5073298;28;20007;-36
2022/07/19 04:54:40;;;;;;;;;;;;;;;20.39;62.46;101746.25;5072191;28;19913;-36
2022/07/19 04:57:06;;;;;;;;;;;;;;;20.42;61.80;101743.81;5073252;28;19920;-36
2022/07/19 04:59:31;;;;;;;;;;;;;;;20.46;61.91;101744.91;5072342;28;19919;-36
2022/07/19 05:01:56;;;;;;;;;;;;;;;20.53;61.72;101744.63;5073334;28;19920;-36
2022/07/19 05:04:21;;;;;;;;;;;;;;;20.61;63.45;101748.78;5072975;28;19920;-36
2022/07/19 05:06:46;;;;;;;;;;;;;;;20.62;63.75;101745.75;5073516;28;19985;-36
2022/07/19 05:09:12;;;;;;;;;;;;;;;20.61;63.42;101737.78;5072524;28;20003;-36
2022/07/19 05:11:37;;;;;;;;;;;;;;;20.64;62.75;101740.78;5073935;28;19966;-36
2022/07/19 05:14:02;;;;;;;;;;;;;;;20.73;63.50;101735.53;5073431;28;19912;-36
2022/07/19 05:16:27;;;;;;;;;;;;;;;20.78;63.11;101741.03;5073407;28;19912;-36
2022/07/19 05:18:53;;;;;;;;;;;;;;;20.83;63.69;101736.34;5073586;28;19922;-36
2022/07/19 05:21:18;;;;;;;;;;;;;;;20.88;63.48;101734.69;5073142;28;19919;-36
2022/07/19 05:23:43;;;;;;;;;;;;;;;20.94;62.58;101736.34;5073329;28;19916;-36
2022/07/19 05:26:09;;;;;;;;;;;;;;;21.06;62.42;101734.91;5072948;28;20364;-36
2022/07/19 05:28:34;;;;;;;;;;;;;;;21.19;62.78;101736.25;5073053;28;19961;-36
2022/07/19 05:30:59;;;;;;;;;;;;;;;21.27;62.90;101735.66;5073368;28;19919;-36
2022/07/19 05:33:26;;;;;;;;;;;;;;;21.32;62.87;101740.34;5073294;28;19919;-36
2022/07/19 05:35:51;;;;;;;;;;;;;;;21.41;62.87;101746.09;5072729;28;19912;-36
2022/07/19 05:38:16;;;;;;;;;;;;;;;21.46;62.37;101743.31;5072733;28;19912;-36
2022/07/19 05:40:42;;;;;;;;;;;;;;;21.53;62.33;101743.84;5073041;28;19920;-36
2022/07/19 05:43:07;;;;;;;;;;;;;;;21.60;62.17;101736.91;5072838;28;19920;-36
2022/07/19 05:45:32;;;;;;;;;;;;;;;21.73;61.64;101746.50;5073009;28;20056;-36
2022/07/19 05:47:57;;;;;;;;;;;;;;;21.82;61.39;101739.28;5073188;28;20345;-37
2022/07/19 05:50:23;;;;;;;;;;;;;;;21.95;61.27;101745.25;5072877;28;19995;-36
2022/07/19 05:52:48;;;;;;;;;;;;;;;22.01;60.20;101747.69;5071455;28;19916;-36
2022/07/19 05:55:13;;;;;;;;;;;;;;;22.09;60.28;101740.75;5073117;28;19961;-36
2022/07/19 05:57:38;;;;;;;;;;;;;;;22.19;60.12;101740.69;5072686;28;19966;-36
2022/07/19 06:00:04;;;;;;;;;;;;;;;22.22;59.89;101742.88;5072241;28;19969;-36
2022/07/19 06:02:29;;;;;;;;;;;;;;;22.28;59.97;101738.97;5072680;28;19912;-37
2022/07/19 06:04:54;;;;;;;;;;;;;;;22.36;59.83;101743.06;5073067;28;19916;-37
2022/07/19 06:07:20;;;;;;;;;;;;;;;22.47;59.59;101741.03;5072723;28;20349;-37
2022/07/19 06:09:45;;;;;;;;;;;;;;;22.61;59.68;101745.56;5072611;28;19917;-37
2022/07/19 06:12:10;;;;;;;;;;;;;;;22.74;58.84;101740.47;5072526;28;20352;-37
2022/07/19 06:14:35;;;;;;;;;;;;;;;22.84;57.90;101749.50;5072664;28;20352;-37
2022/07/19 06:17:00;;;;;;;;;;;;;;;22.94;57.79;101743.06;5072744;28;20348;-37
2022/07/19 06:19:26;;;;;;;;;;;;;;;23.07;57.71;101747.06;5072440;28;19912;-37
2022/07/19 06:21:52;;;;;;;;;;;;;;;23.16;57.15;101744.47;5075239;28;19916;-37
2022/07/19 06:24:17;;;;;;;;;;;;;;;23.23;56.28;101745.78;5076522;28;19912;-37
2022/07/19 06:26:42;;;;;;;;;;;;;;;23.32;56.35;101748.69;5076304;28;19912;-37
2022/07/19 06:29:07;;;;;;;;;;;;;;;23.40;56.14;101753.56;5076152;28;20314;-37
2022/07/19 06:31:32;;;;;;;;;;;;;;;23.45;55.27;101749.91;5076237;28;20361;-37
2022/07/19 06:33:58;;;;;;;;;;;;;;;23.51;55.52;101749.53;5076117;28;19919;-37
2022/07/19 06:36:23;;;;;;;;;;;;;;;23.56;55.44;101743.94;5076352;28;20310;-37
2022/07/19 06:38:49;;;;;;;;;;;;;;;23.61;55.48;101746.63;5076125;28;19919;-37
2022/07/19 06:41:15;;;;;;;;;;;;;;;23.65;55.51;101746.91;5076436;28;19916;-37
2022/07/19 06:43:40;;;;;;;;;;;;;;;23.69;55.17;101736.91;5075717;28;19939;-37
2022/07/19 06:46:06;;;;;;;;;;;;;;;23.75;55.51;101746.75;5075418;28;20376;-37
2022/07/19 06:48:31;;;;;;;;;;;;;;;23.81;54.83;101734.50;5075896;28;19912;-37
2022/07/19 06:50:56;;;;;;;;;;;;;;;23.85;54.63;101734.75;5075281;28;19918;-37
2022/07/19 06:53:21;;;;;;;;;;;;;;;23.89;54.57;101733.84;5075867;28;19916;-37
2022/07/19 06:55:47;;;;;;;;;;;;;;;23.96;54.75;101740.94;5075968;28;19912;-37
2022/07/19 06:58:12;;;;;;;;;;;;;;;24.04;54.73;101738.31;5075500;28;19918;-37
2022/07/19 07:00:37;;;;;;;;;;;;;;;24.13;54.95;101738.47;5075216;28;19912;-37
2022/07/19 07:03:03;;;;;;;;;;;;;;;24.21;55.02;101735.03;5075135;28;19958;-37
2022/07/19 07:05:28;;;;;;;;;;;;;;;24.29;54.48;101742.59;5076020;28;19912;-37
2022/07/19 07:07:54;;;;;;;;;;;;;;;24.37;54.42;101741.97;5075921;28;19916;-37
2022/07/19 07:10:19;;;;;;;;;;;;;;;24.45;54.38;101734.94;5075490;28;19912;-37
2022/07/19 07:12:44;;;;;;;;;;;;;;;24.51;53.57;101736.47;5075124;28;19920;-37
2022/07/19 07:15:10;;;;;;;;;;;;;;;24.60;53.25;101734.66;5074978;28;19916;-37
2022/07/19 07:17:36;;;;;;;;;;;;;;;24.66;53.03;101727.91;5075059;28;19913;-37
2022/07/19 07:20:01;;;;;;;;;;;;;;;24.74;52.80;101726.34;5075104;28;19912;-37
2022/07/19 07:22:26;;;;;;;;;;;;;;;24.82;52.85;101731.19;5074986;28;20258;-37
2022/07/19 07:24:51;;;;;;;;;;;;;;;24.91;53.20;101731.31;5074854;28;19983;-37
2022/07/19 07:27:17;;;;;;;;;;;;;;;24.99;52.75;101732.56;5075137;28;19913;-37
2022/07/19 07:29:42;;;;;;;;;;;;;;;25.07;52.84;101723.53;5074490;28;20376;-37
2022/07/19 07:32:07;;;;;;;;;;;;;;;25.15;53.62;101726.41;5075033;28;20199;-37
2022/07/19 07:34:32;;;;;;;;;;;;;;;25.24;53.29;101723.75;5074431;28;19912;-37
2022/07/19 07:36:57;;;;;;;;;;;;;;;25.35;53.18;101722.41;5074294;28;19913;-37
2022/07/19 07:39:23;;;;;;;;;;;;;;;25.45;52.31;101718.59;5074610;28;19912;-37
2022/07/19 07:41:48;;;;;;;;;;;;;;;25.54;52.41;101715.91;5074260;28;19912;-37
2022/07/19 07:44:14;;;;;;;;;;;;;;;25.63;52.55;101716.81;5074792;28;19923;-37
2022/07/19 07:46:39;;;;;;;;;;;;;;;25.70;52.16;101708.88;5074531;28;20386;-37
2022/07/19 07:49:04;;;;;;;;;;;;;;;25.80;51.99;101708.69;5074370;28;19913;-37
2022/07/19 07:51:30;;;;;;;;;;;;;;;25.90;51.93;101711.19;5073909;28;20300;-37
2022/07/19 07:53:55;;;;;;;;;;;;;;;25.98;51.51;101706.88;5074719;28;19929;-37
2022/07/19 07:56:20;;;;;;;;;;;;;;;26.07;52.09;101707.75;5075082;28;19958;-37
2022/07/19 07:58:45;;;;;;;;;;;;;;;26.16;52.06;101708.66;5074493;28;20014;-36
2022/07/19 08:01:11;;;;;;;;;;;;;;;26.27;51.81;101697.28;5074497;28;19923;-37
2022/07/19 08:03:36;;;;;;;;;;;;;;;26.36;51.47;101698.97;5074084;28;19912;-36
2022/07/19 08:06:01;;;;;;;;;;;;;;;26.42;51.03;101706.06;5074633;28;19919;-36
2022/07/19 08:08:26;;;;;;;;;;;;;;;26.50;50.71;101700.88;5074118;28;19913;-36
2022/07/19 08:10:55;;;;;;;;;;;;;;;26.57;51.51;101695.69;5073677;28;20010;-36
2022/07/19 08:13:20;;;;;;;;;;;;;;;26.69;51.17;101701.44;5073579;28;20435;-35
2022/07/19 08:15:46;;;;;;;;;;;;;;;26.80;50.69;101697.28;5072489;28;19912;-36
2022/07/19 08:18:11;;;;;;;;;;;;;;;26.91;50.66;101695.03;5074084;28;19912;-36
2022/07/19 08:20:36;;;;;;;;;;;;;;;26.99;50.31;101691.47;5073969;28;19912;-36
2022/07/19 08:23:02;;;;;;;;;;;;;;;27.10;49.61;101695.59;5074355;28;19935;-36
2022/07/19 08:25:27;;;;;;;;;;;;;;;27.22;49.55;101689.41;5073421;28;20387;-36
2022/07/19 08:27:52;;;;;;;;;;;;;;;27.31;49.43;101695.81;5073988;28;19961;-36
2022/07/19 08:30:17;;;;;;;;;;;;;;;27.39;47.09;101694.19;5073582;28;19912;-37
2022/07/19 08:32:43;;;;;;;;;;;;;;;27.48;47.83;101697.81;5074115;28;19920;-36
2022/07/19 08:35:08;;;;;;;;;;;;;;;27.62;47.90;101692.09;5073466;28;19919;-36
2022/07/19 08:37:34;;;;;;;;;;;;;;;27.73;47.04;101687.88;5073321;28;19916;-37
2022/07/19 08:39:59;;;;;;;;;;;;;;;27.85;47.55;101685.25;5073704;28;19951;-37
2022/07/19 08:42:24;;;;;;;;;;;;;;;28.00;46.76;101685.91;5073803;28;20383;-37
2022/07/19 08:44:51;;;;;;;;;;;;;;;28.13;47.37;101684.91;5072484;28;19927;-36
2022/07/19 08:47:18;;;;;;;;;;;;;;;28.28;45.28;101683.56;5073690;28;19966;-37
2022/07/19 08:49:43;;;;;;;;;;;;;;;28.43;44.48;101683.06;5074042;28;19955;-37
2022/07/19 08:52:09;;;;;;;;;;;;;;;28.58;44.94;101674.16;5073442;28;19959;-37
2022/07/19 08:54:34;;;;;;;;;;;;;;;28.74;43.70;101679.97;5073857;28;19939;-37
2022/07/19 08:59:43;;;;;;;;;;;;;;;28.98;43.93;101677.44;5073691;28;19986;-37
2022/07/19 09:02:08;;;;;;;;;;;;;;;29.08;42.88;101678.22;5073808;28;19988;-37
2022/07/19 09:04:33;;;;;;;;;;;;;;;29.22;42.50;101668.44;5073376;28;20353;-37
2022/07/19 09:06:59;;;;;;;;;;;;;;;29.37;43.50;101675.38;5073478;28;19912;-37
2022/07/19 09:09:25;;;;;;;;;;;;;;;29.48;41.92;101673.84;5073410;28;20360;-37
2022/07/19 09:11:52;;;;;;;;;;;;;;;29.58;42.98;101666.28;5073236;28;19927;-37
2022/07/19 09:14:39;;;;;;;;;;;;;;;29.67;43.02;101665.03;5073084;28;20015;-37
2022/07/19 09:17:06;;;;;;;;;;;;;;;29.84;43.56;101666.84;5073053;28;19922;-37
2022/07/19 09:19:35;;;;;;;;;;;;;;;29.96;42.96;101655.72;5072952;28;19957;-37
2022/07/19 09:22:03;;;;;;;;;;;;;;;30.08;41.72;101652.19;5073345;28;20272;-37
2022/07/19 09:24:30;;;;;;;;;;;;;;;30.22;41.36;101660.28;5073067;28;20368;-37
2022/07/19 09:27:09;;;;;;;;;;;;;;;30.37;40.30;101651.22;5073110;28;20394;-37
2022/07/19 09:29:36;;;;;;;;;;;;;;;30.56;40.26;101649.88;5072973;28;20284;-37
2022/07/19 09:32:08;;;;;;;;;;;;;;;30.68;40.71;101649.84;5073831;28;19913;-37
2022/07/19 09:34:34;;;;;;;;;;;;;;;30.79;40.35;101651.03;5073415;28;20276;-37
2022/07/19 09:37:09;;;;;;;;;;;;;;;30.89;40.06;101650.59;5073022;28;20345;-37
2022/07/19 09:39:34;;;;;;;;;;;;;;;30.99;39.88;101646.50;5072598;28;20403;-36
2022/07/19 09:42:02;;;;;;;;;;;;;;;31.13;40.01;101643.34;5072827;28;19912;-36
2022/07/19 09:44:27;;;;;;;;;;;;;;;31.20;38.91;101643.56;5073108;28;19920;-36
2022/07/19 09:46:53;;;;;;;;;;;;;;;31.29;40.31;101635.91;5073119;28;20470;-36
2022/07/19 09:49:18;;;;;;;;;;;;;;;31.37;39.33;101640.50;5072565;28;20273;-36
2022/07/19 09:51:43;;;;;;;;;;;;;;;31.47;37.29;101637.22;5073277;28;19916;-36
2022/07/19 09:54:10;;;;;;;;;;;;;;;31.57;37.42;101641.50;5073057;28;19990;-36
2022/07/19 09:56:36;;;;;;;;;;;;;;;31.68;37.78;101636.22;5076625;28;19912;-36
2022/07/19 09:59:01;;;;;;;;;;;;;;;31.82;37.16;101644.22;5076546;28;20344;-36
2022/07/19 10:01:27;;;;;;;;;;;;;;;31.93;38.52;101645.34;5076750;28;19958;-36
2022/07/19 10:03:54;;;;;;;;;;;;;;;32.01;39.08;101636.81;5076366;28;19970;-36
2022/07/19 10:06:19;;;;;;;;;;;;;;;32.14;38.47;101636.72;5076899;28;20273;-36
2022/07/19 10:08:45;;;;;;;;;;;;;;;32.25;38.98;101635.81;5074907;28;19912;-36
2022/07/19 10:11:11;;;;;;;;;;;;;;;32.34;38.44;101635.63;5076539;28;19978;-36
2022/07/19 10:13:36;;;;;;;;;;;;;;;32.44;36.47;101629.53;5076290;28;20368;-36
2022/07/19 10:16:03;;;;;;;;;;;;;;;32.50;37.13;101630.06;5076241;28;19935;-36
2022/07/19 10:18:32;;;;;;;;;;;;;;;32.60;35.63;101634.31;5076382;28;19912;-37
2022/07/19 10:21:01;;;;;;;;;;;;;;;32.67;37.05;101620.50;5075760;28;19913;-36
2022/07/19 10:23:31;;;;;;;;;;;;;;;32.75;36.16;101625.91;5076853;28;19995;-37
2022/07/19 10:25:56;;;;;;;;;;;;;;;32.85;36.20;101618.13;5076096;28;19913;-37
2022/07/19 10:28:30;;;;;;;;;;;;;;;32.96;34.70;101619.22;5076512;28;19942;-36
2022/07/19 10:30:56;;;;;;;;;;;;;;;33.11;34.66;101609.94;5076213;28;19912;-37
2022/07/19 10:33:33;;;;;;;;;;;;;;;33.26;36.21;101613.88;5075949;28;20285;-36
2022/07/19 10:36:18;;;;;;;;;;;;;;;33.39;34.62;101623.75;5075462;28;19912;-36
2022/07/19 10:39:02;;;;;;;;;;;;;;;33.47;35.61;101622.75;5076479;28;20300;-37
2022/07/19 10:41:27;;;;;;;;;;;;;;;33.51;34.96;101609.63;5075498;28;19913;-37
2022/07/19 10:44:09;;;;;;;;;;;;;;;33.54;34.37;101606.09;5075789;28;19923;-37
2022/07/19 10:46:34;;;;;;;;;;;;;;;33.63;34.05;101602.25;5076148;28;20373;-37
2022/07/19 10:48:59;;;;;;;;;;;;;;;33.74;33.44;101600.47;5075574;28;19920;-36
2022/07/19 10:51:34;;;;;;;;;;;;;;;33.87;33.92;101599.13;5075865;28;19912;-36
2022/07/19 10:54:01;;;;;;;;;;;;;;;33.88;29.58;101591.50;5076269;28;19924;-36
2022/07/19 10:56:28;;;;;;;;;;;;;;;33.92;30.95;101589.56;5075646;28;19951;-36
2022/07/19 10:59:01;;;;;;;;;;;;;;;33.99;30.94;101593.34;5075188;28;20401;-36
2022/07/19 11:01:28;;;;;;;;;;;;;;;34.10;30.08;101584.28;5076237;28;19912;-36
2022/07/19 11:03:54;;;;;;;;;;;;;;;34.18;30.99;101589.66;5075290;28;20034;-36
2022/07/19 11:06:19;;;;;;;;;;;;;;;34.24;30.85;101582.53;5075524;28;20352;-36
2022/07/19 11:08:45;;;;;;;;;;;;;;;34.33;29.78;101579.50;5074644;28;20007;-36
2022/07/19 11:11:12;;;;;;;;;;;;;;;34.48;28.94;101584.16;5076031;28;20237;-36
2022/07/19 11:13:38;;;;;;;;;;;;;;;34.61;30.06;101572.75;5074954;28;19959;-36
2022/07/19 11:16:03;;;;;;;;;;;;;;;34.66;29.53;101570.41;5075848;28;19912;-36
2022/07/19 11:18:29;;;;;;;;;;;;;;;34.72;27.98;101562.47;5075093;28;20310;-37
2022/07/19 11:20:56;;;;;;;;;;;;;;;34.77;28.91;101554.50;5074989;28;19975;-37
2022/07/19 11:23:21;;;;;;;;;;;;;;;34.95;27.73;101557.63;5075745;28;19912;-37
2022/07/19 11:25:49;;;;;;;;;;;;;;;35.11;29.05;101546.16;5074979;28;19913;-36
2022/07/19 11:28:24;;;;;;;;;;;;;;;35.20;28.17;101555.13;5075233;28;20042;-36
2022/07/19 11:30:49;;;;;;;;;;;;;;;35.24;25.56;101544.72;5074639;28;19912;-36
2022/07/19 11:33:16;;;;;;;;;;;;;;;35.25;26.22;101548.34;5074673;28;20007;-37
2022/07/19 11:35:51;;;;;;;;;;;;;;;35.32;27.90;101540.00;5074297;28;19920;-37
2022/07/19 11:38:17;;;;;;;;;;;;;;;35.40;26.45;101536.06;5074442;28;20000;-37
2022/07/19 11:40:42;;;;;;;;;;;;;;;35.39;26.81;101542.91;5075107;28;19962;-37
2022/07/19 11:43:07;;;;;;;;;;;;;;;35.43;28.37;101540.09;5075068;28;19999;-37
2022/07/19 11:45:40;;;;;;;;;;;;;;;35.50;28.32;101537.41;5074547;28;19920;-37
2022/07/19 11:48:05;;;;;;;;;;;;;;;35.60;27.90;101533.91;5074551;28;19919;-37
2022/07/19 11:50:30;;;;;;;;;;;;;;;35.64;27.57;101531.13;5074408;28;19913;-37
2022/07/19 11:52:57;;;;;;;;;;;;;;;35.68;28.44;101524.34;5075009;28;19990;-37
2022/07/19 11:55:26;;;;;;;;;;;;;;;35.72;29.07;101525.16;5072980;28;20080;-37
2022/07/19 11:57:52;;;;;;;;;;;;;;;35.79;27.63;101532.88;5074838;28;20269;-37
2022/07/19 12:00:18;;;;;;;;;;;;;;;35.43;25.28;101521.25;5074252;28;19913;-37
2022/07/19 12:03:04;;;;;;;;;;;;;;;35.60;27.83;101523.47;5074535;28;20370;-37
2022/07/19 12:05:31;;;;;;;;;;;;;;;35.78;27.11;101518.00;5074678;28;19936;-37
2022/07/19 12:07:58;;;;;;;;;;;;;;;35.91;27.79;101517.72;5074606;28;19912;-37
2022/07/19 12:10:42;;;;;;;;;;;;;;;35.96;26.48;101517.38;5074053;28;19966;-37
2022/07/19 12:13:09;;;;;;;;;;;;;;;36.04;25.21;101513.44;5074058;28;19913;-37
2022/07/19 12:15:47;;;;;;;;;;;;;;;35.91;23.43;101498.00;5073955;28;19978;-37
2022/07/19 12:18:13;;;;;;;;;;;;;;;36.02;23.93;101498.97;5073582;28;20023;-37
2022/07/19 12:20:39;;;;;;;;;;;;;;;36.11;24.75;101499.41;5073434;28;20003;-37
2022/07/19 12:23:11;;;;;;;;;;;;;;;36.16;22.41;101489.78;5074416;28;19966;-37
2022/07/19 12:25:37;;;;;;;;;;;;;;;36.22;23.43;101489.06;5073833;28;19919;-37
2022/07/19 12:28:02;;;;;;;;;;;;;;;36.13;22.88;101482.94;5074209;28;19994;-37
2022/07/19 12:30:29;;;;;;;;;;;;;;;36.19;24.13;101489.00;5073739;28;19912;-37
2022/07/19 12:33:04;;;;;;;;;;;;;;;36.25;24.10;101484.63;5073654;28;20336;-37